Time;durP1;ratioP1;P1;durP2;ratioP2;P2;SDS_P1;SDS_P2;PMS_P1;PMS_P2;Temp;Humidity;BMP_temperature;BMP_pressure;BME280_temperature;BME280_humidity;BME280_pressure;Samples;Min_cycle;Max_cycle;Signal;HPM_P1;HPM_P2
2024/01/16 00:02:10;;;;;;;3.23;2.93;;;;;;;-0.36;84.22;96632.00;6199436;28;20189;-56
2024/01/16 00:05:13;;;;;;;3.87;2.93;;;;;;;-0.56;85.76;96634.56;6193189;28;20233;-54
2024/01/16 00:08:16;;;;;;;5.37;3.33;;;;;;;-0.44;84.33;96624.34;6201384;28;20194;-56
2024/01/16 00:11:18;;;;;;;3.77;3.10;;;;;;;-0.40;82.38;96630.78;6197897;28;20212;-55
2024/01/16 00:14:21;;;;;;;3.03;2.73;;;;;;;-0.40;82.31;96615.06;6199282;28;20204;-52
2024/01/16 00:17:23;;;;;;;3.23;2.83;;;;;;;-0.45;80.83;96627.13;6202218;28;20207;-56
2024/01/16 00:20:26;;;;;;;3.97;2.70;;;;;;;-0.53;80.24;96656.91;6178267;28;20211;-55
2024/01/16 00:23:32;;;;;;;4.30;2.93;;;;;;;-0.61;80.57;96646.63;6198927;28;20197;-54
2024/01/16 00:26:36;;;;;;;4.00;2.90;;;;;;;-0.70;79.08;96611.19;6203959;28;20685;-55
2024/01/16 00:29:38;;;;;;;3.20;2.90;;;;;;;-0.41;79.75;96647.47;6202670;23;20675;-55
2024/01/16 00:32:41;;;;;;;3.83;2.53;;;;;;;-0.41;79.33;96634.41;6176601;28;20209;-53
2024/01/16 00:35:43;;;;;;;3.93;3.10;;;;;;;-0.42;79.36;96664.19;6177104;28;20272;-53
2024/01/16 00:38:46;;;;;;;3.97;2.60;;;;;;;-0.17;77.55;96671.50;6186259;28;20209;-53
2024/01/16 00:41:49;;;;;;;3.83;3.23;;;;;;;-0.38;79.70;96670.66;6186129;28;20196;-53
2024/01/16 00:44:52;;;;;;;3.43;2.53;;;;;;;-0.33;79.39;96688.38;6164906;28;20228;-52
2024/01/16 00:47:54;;;;;;;3.93;3.23;;;;;;;-0.40;79.99;96680.47;6200903;28;20205;-54
2024/01/16 00:50:57;;;;;;;6.10;2.83;;;;;;;-0.59;79.98;96662.91;6189162;28;20212;-52
2024/01/16 00:54:00;;;;;;;3.30;2.80;;;;;;;-0.23;77.38;96696.66;6175802;28;20547;-52
2024/01/16 00:57:02;;;;;;;3.83;2.70;;;;;;;-0.31;78.48;96683.72;6177915;28;20193;-53
2024/01/16 01:00:06;;;;;;;4.73;2.60;;;;;;;-0.22;76.86;96698.25;6194699;28;20279;-53
2024/01/16 01:03:08;;;;;;;5.00;3.03;;;;;;;-0.24;75.19;96720.41;6177745;28;20198;-54
2024/01/16 01:06:12;;;;;;;4.53;3.00;;;;;;;-0.29;76.63;96695.63;6174332;28;20254;-55
2024/01/16 01:09:14;;;;;;;4.13;2.90;;;;;;;-0.52;77.95;96709.03;6182895;28;20197;-55
2024/01/16 01:12:17;;;;;;;3.57;2.83;;;;;;;-0.33;75.44;96701.44;6180185;28;20255;-55
2024/01/16 01:15:20;;;;;;;3.97;3.00;;;;;;;-0.42;75.67;96695.56;6185261;28;20201;-55
2024/01/16 01:18:24;;;;;;;3.57;2.87;;;;;;;-0.30;75.16;96722.78;6170558;28;20202;-54
2024/01/16 01:21:27;;;;;;;3.93;3.00;;;;;;;-0.32;75.83;96719.56;6175576;28;20194;-53
2024/01/16 01:24:29;;;;;;;4.77;3.10;;;;;;;-0.20;74.14;96722.41;6174633;28;20212;-54
2024/01/16 01:27:32;;;;;;;3.53;2.60;;;;;;;-0.60;76.00;96706.56;6179976;28;20212;-54
2024/01/16 01:30:34;;;;;;;3.73;2.67;;;;;;;-0.66;76.31;96736.13;6171148;28;20241;-56
2024/01/16 01:33:37;;;;;;;4.07;2.93;;;;;;;-0.67;76.72;96715.41;6188266;28;20189;-53
2024/01/16 01:36:39;;;;;;;4.93;3.43;;;;;;;-0.40;74.19;96732.00;6177552;28;20190;-54
2024/01/16 01:39:42;;;;;;;5.27;3.10;;;;;;;-0.61;74.41;96732.94;6178635;28;20202;-51
2024/01/16 01:42:44;;;;;;;5.07;2.80;;;;;;;-0.43;72.42;96750.72;6171820;28;20200;-53
2024/01/16 01:46:05;;;;;;;3.00;2.60;;;;;;;-0.70;73.85;96763.66;6180649;28;20264;-53
2024/01/16 01:49:09;;;;;;;4.70;2.97;;;;;;;-0.59;73.88;96744.81;6179669;28;20186;-53
2024/01/16 01:52:11;;;;;;;3.97;2.90;;;;;;;-0.70;74.67;96768.09;6187846;28;20220;-53
2024/01/16 01:55:15;;;;;;;3.27;2.80;;;;;;;-0.53;73.17;96791.13;6179539;28;20208;-52
2024/01/16 01:58:17;;;;;;;3.27;2.97;;;;;;;-0.84;73.64;96741.88;6172722;28;20240;-53
2024/01/16 02:01:22;;;;;;;4.07;3.23;;;;;;;-0.70;74.86;96792.44;6179171;28;20194;-52
2024/01/16 02:04:26;;;;;;;5.13;3.00;;;;;;;-0.61;73.36;96774.78;6180377;28;20197;-53
2024/01/16 02:07:29;;;;;;;3.83;3.00;;;;;;;-0.60;72.45;96782.41;6268651;28;20207;-53
2024/01/16 02:10:32;;;;;;;3.50;2.60;;;;;;;-0.56;72.09;96767.16;6188064;28;20210;-52
2024/01/16 02:13:35;;;;;;;3.67;3.00;;;;;;;-0.71;73.55;96764.66;6180827;28;20193;-55
2024/01/16 02:16:39;;;;;;;4.07;2.60;;;;;;;-0.75;72.94;96773.91;6182297;28;20205;-55
2024/01/16 02:19:42;;;;;;;4.33;3.17;;;;;;;-0.89;74.74;96780.84;6181841;28;20191;-54
2024/01/16 02:22:49;;;;;;;4.47;3.30;;;;;;;-0.98;76.66;96791.66;6178470;28;20182;-54
2024/01/16 02:25:51;;;;;;;4.63;3.33;;;;;;;-0.98;75.61;96802.94;6176314;28;20285;-53
2024/01/16 02:28:54;;;;;;;6.97;3.30;;;;;;;-1.06;75.94;96793.41;6181027;28;20233;-54
2024/01/16 02:31:57;;;;;;;4.33;3.20;;;;;;;-1.21;77.00;96813.59;6161559;28;20386;-53
2024/01/16 02:34:59;;;;;;;4.07;3.33;;;;;;;-0.91;74.81;96827.28;6269702;28;20210;-53
2024/01/16 02:38:02;;;;;;;4.70;3.23;;;;;;;-1.14;77.50;96850.22;6185766;28;20239;-54
2024/01/16 02:41:04;;;;;;;3.60;2.93;;;;;;;-1.06;76.44;96843.06;6184298;28;20204;-51
2024/01/16 02:44:07;;;;;;;5.53;3.00;;;;;;;-0.83;75.20;96847.28;6275921;28;20236;-54
2024/01/16 02:47:10;;;;;;;4.00;3.40;;;;;;;-0.91;75.46;96852.63;6183091;28;20272;-54
2024/01/16 02:50:13;;;;;;;3.47;2.70;;;;;;;-1.08;77.76;96858.16;6180646;28;20802;-52
2024/01/16 02:53:15;;;;;;;3.63;3.13;;;;;;;-1.12;77.85;96846.44;6186876;28;20206;-53
2024/01/16 02:56:18;;;;;;;4.87;3.20;;;;;;;-1.36;76.92;96799.81;6184230;28;20194;-53
2024/01/16 02:59:20;;;;;;;3.47;2.67;;;;;;;-0.94;76.95;96863.47;6176088;28;20189;-53
2024/01/16 03:02:23;;;;;;;3.87;2.97;;;;;;;-1.09;77.31;96863.53;6176947;28;20194;-54
2024/01/16 03:05:26;;;;;;;4.10;3.20;;;;;;;-1.01;76.45;96855.56;6178396;28;20245;-52
2024/01/16 03:08:29;;;;;;;5.20;3.00;;;;;;;-1.02;75.78;96866.22;6177162;28;20198;-52
2024/01/16 03:11:33;;;;;;;4.90;2.90;;;;;;;-1.07;75.82;96862.38;6183905;28;20210;-53
2024/01/16 03:14:36;;;;;;;4.03;2.60;;;;;;;-0.91;75.20;96865.72;6183584;28;20658;-55
2024/01/16 03:17:39;;;;;;;4.83;3.37;;;;;;;-1.05;74.70;96843.88;6183581;28;20247;-53
2024/01/16 03:20:43;;;;;;;2.80;2.60;;;;;;;-1.11;76.25;96847.25;6263145;28;20202;-53
2024/01/16 03:23:45;;;;;;;4.40;3.30;;;;;;;-1.22;74.75;96826.84;6180250;28;20285;-54
2024/01/16 03:26:48;;;;;;;3.53;2.70;;;;;;;-1.21;76.84;96855.41;6171560;28;20205;-54
2024/01/16 03:29:50;;;;;;;6.57;3.20;;;;;;;-1.24;77.89;96852.34;6182699;28;20240;-54
2024/01/16 03:32:53;;;;;;;4.03;3.13;;;;;;;-1.33;77.34;96852.50;6181532;28;20205;-53
2024/01/16 03:35:56;;;;;;;4.53;2.90;;;;;;;-1.58;77.96;96841.63;6190606;28;20212;-54
2024/01/16 03:38:58;;;;;;;4.77;3.03;;;;;;;-1.47;78.11;96873.47;6189891;28;20205;-51
2024/01/16 03:42:01;;;;;;;5.47;3.07;;;;;;;-1.24;76.75;96873.25;6178981;28;20204;-54
2024/01/16 03:45:06;;;;;;;3.93;2.80;;;;;;;-1.44;78.03;96892.16;6172022;28;20205;-53
2024/01/16 03:48:08;;;;;;;5.23;3.10;;;;;;;-1.18;75.79;96890.78;6184036;28;20229;-54
2024/01/16 03:51:15;;;;;;;3.27;2.83;;;;;;;-1.20;76.44;96898.03;6178906;28;20214;-54
2024/01/16 03:54:17;;;;;;;4.40;2.67;;;;;;;-1.26;76.13;96885.72;6188847;28;20220;-52
2024/01/16 03:57:20;;;;;;;3.47;2.70;;;;;;;-1.03;74.35;96891.56;6178897;28;20197;-52
2024/01/16 04:00:22;;;;;;;5.77;2.70;;;;;;;-1.25;75.46;96906.41;6178359;28;20251;-54
2024/01/16 04:03:25;;;;;;;5.23;3.27;;;;;;;-1.31;75.50;96909.78;6185213;28;20205;-49
2024/01/16 04:06:29;;;;;;;2.87;2.37;;;;;;;-1.12;74.20;96913.59;6184007;28;20280;-53
2024/01/16 04:09:31;;;;;;;6.93;2.63;;;;;;;-1.08;74.40;96914.84;6179093;28;20198;-51
2024/01/16 04:12:34;;;;;;;3.43;2.87;;;;;;;-1.06;73.56;96910.22;6189302;28;20415;-53
2024/01/16 04:15:39;;;;;;;6.93;2.57;;;;;;;-1.14;73.90;96939.06;6193487;28;20194;-54
2024/01/16 04:18:43;;;;;;;4.47;2.73;;;;;;;-1.25;75.06;96955.25;6177747;28;20212;-54
2024/01/16 04:21:46;;;;;;;3.20;2.50;;;;;;;-1.01;72.91;96938.41;6185615;28;20190;-53
2024/01/16 04:24:49;;;;;;;3.53;2.47;;;;;;;-1.14;72.74;96929.44;6177157;28;20217;-54
2024/01/16 04:27:51;;;;;;;3.37;2.27;;;;;;;-1.17;73.47;96939.47;6182449;28;20198;-52
2024/01/16 04:30:54;;;;;;;4.60;2.93;;;;;;;-1.17;73.22;96944.69;6177069;28;20249;-53
2024/01/16 04:33:56;;;;;;;3.93;2.57;;;;;;;-1.19;73.64;96910.88;6183714;28;20231;-53
2024/01/16 04:36:59;;;;;;;3.33;2.40;;;;;;;-1.28;73.82;96932.94;6176457;28;20210;-53
2024/01/16 04:40:02;;;;;;;4.13;2.20;;;;;;;-0.94;71.28;96920.97;6175758;28;20200;-54
2024/01/16 04:43:05;;;;;;;3.37;2.30;;;;;;;-0.90;70.08;96930.88;6181720;28;20194;-54
2024/01/16 04:46:07;;;;;;;2.30;2.07;;;;;;;-1.20;71.51;96891.00;6175733;28;20264;-55
2024/01/16 04:49:11;;;;;;;6.33;2.50;;;;;;;-1.27;72.96;96905.00;6177839;28;20206;-53
2024/01/16 04:52:13;;;;;;;3.13;1.97;;;;;;;-1.32;72.52;96919.44;6174322;28;20221;-54
2024/01/16 04:55:16;;;;;;;3.27;1.83;;;;;;;-1.27;73.64;96923.28;6184238;28;20189;-54
2024/01/16 04:58:19;;;;;;;4.67;1.93;;;;;;;-1.28;71.19;96896.34;6167620;28;20196;-51
2024/01/16 05:01:21;;;;;;;4.17;1.97;;;;;;;-0.97;69.82;96914.31;6185713;28;20178;-53
2024/01/16 05:04:24;;;;;;;2.87;1.90;;;;;;;-0.96;69.67;96920.34;6193173;28;20538;-54
2024/01/16 05:07:26;;;;;;;4.97;1.93;;;;;;;-1.01;69.42;96902.63;6178910;28;20320;-56
2024/01/16 05:10:30;;;;;;;2.20;1.83;;;;;;;-1.19;71.29;96899.63;6175920;28;20198;-55
2024/01/16 05:13:33;;;;;;;3.47;1.60;;;;;;;-1.10;69.59;96922.84;6203049;28;20732;-53
2024/01/16 05:16:36;;;;;;;2.83;1.63;;;;;;;-1.37;70.52;96906.13;6185182;28;20194;-54
2024/01/16 05:19:39;;;;;;;2.70;1.43;;;;;;;-0.83;66.53;96908.22;6186214;28;20338;-54
2024/01/16 05:22:41;;;;;;;3.33;2.23;;;;;;;-1.05;68.04;96922.28;6172545;28;20677;-52
2024/01/16 05:25:45;;;;;;;1.87;1.30;;;;;;;-1.16;67.89;96910.53;6171273;28;20198;-53
2024/01/16 05:28:47;;;;;;;2.60;1.23;;;;;;;-0.89;65.21;96906.34;6185241;28;20209;-53
2024/01/16 05:31:50;;;;;;;1.90;1.40;;;;;;;-0.77;65.99;96926.75;6265740;28;20287;-50
2024/01/16 05:34:52;;;;;;;3.33;1.20;;;;;;;-0.86;65.61;96932.13;6178411;28;20572;-52
2024/01/16 05:37:59;;;;;;;1.90;1.33;;;;;;;-0.77;64.68;96939.84;6176899;28;20666;-51
2024/01/16 05:41:01;;;;;;;3.00;1.47;;;;;;;-0.69;63.72;96948.38;6170546;28;20205;-53
2024/01/16 05:44:04;;;;;;;3.77;1.50;;;;;;;-0.80;63.84;96965.34;6177248;28;20673;-52
2024/01/16 05:47:06;;;;;;;3.07;1.10;;;;;;;-0.93;67.79;96954.78;6176506;28;20197;-53
2024/01/16 05:50:09;;;;;;;2.67;1.30;;;;;;;-1.09;66.43;96945.38;6175457;28;20208;-53
2024/01/16 05:53:12;;;;;;;2.33;1.50;;;;;;;-1.05;65.61;96964.91;6183118;28;20201;-52
2024/01/16 05:56:15;;;;;;;4.80;1.33;;;;;;;-1.14;67.45;96971.25;6176196;28;20194;-53
2024/01/16 05:59:17;;;;;;;2.30;1.10;;;;;;;-1.10;66.16;96956.81;6176141;28;20696;-54
2024/01/16 06:02:20;;;;;;;2.47;1.40;;;;;;;-1.06;66.15;96970.34;6172969;28;20196;-53
2024/01/16 06:05:22;;;;;;;1.10;1.00;;;;;;;-1.22;67.28;96955.69;6181771;28;20912;-53
2024/01/16 06:08:25;;;;;;;3.30;0.90;;;;;;;-1.27;67.74;96988.59;6187454;28;20213;-54
2024/01/16 06:11:38;;;;;;;2.67;1.40;;;;;;;-1.02;65.51;96987.28;6161402;28;20300;-53
2024/01/16 06:14:40;;;;;;;2.83;1.40;;;;;;;-1.01;66.76;97032.50;6176702;28;20194;-57
2024/01/16 06:17:43;;;;;;;2.50;1.40;;;;;;;-0.79;63.97;97010.59;6183478;28;20193;-53
2024/01/16 06:20:46;;;;;;;2.77;1.17;;;;;;;-0.87;65.46;97011.56;6184288;28;20225;-53
2024/01/16 06:23:49;;;;;;;2.67;1.23;;;;;;;-0.97;64.89;97008.44;6173639;28;20202;-55
2024/01/16 06:26:52;;;;;;;3.03;1.70;;;;;;;-0.86;63.31;96999.28;6178834;28;20197;-52
2024/01/16 06:29:55;;;;;;;3.37;1.20;;;;;;;-0.99;66.12;97002.56;6180081;28;20515;-53
2024/01/16 06:32:57;;;;;;;1.97;1.20;;;;;;;-1.13;66.19;97006.06;6163423;28;20218;-53
2024/01/16 06:36:01;;;;;;;2.50;0.97;;;;;;;-1.17;65.78;97020.47;6183992;28;20189;-52
2024/01/16 06:39:03;;;;;;;2.30;1.20;;;;;;;-0.76;62.29;97031.16;6178103;28;20198;-54
2024/01/16 06:42:06;;;;;;;2.57;1.20;;;;;;;-0.95;63.67;97024.72;6183321;28;20197;-50
2024/01/16 06:45:13;;;;;;;2.40;1.40;;;;;;;-0.93;63.80;97035.03;6179153;28;20738;-53
2024/01/16 06:48:15;;;;;;;2.50;1.00;;;;;;;-0.90;62.81;97032.81;6179375;28;20201;-53
2024/01/16 06:51:18;;;;;;;3.37;1.10;;;;;;;-0.57;60.98;97035.78;6177286;28;20696;-53
2024/01/16 06:54:23;;;;;;;3.57;1.20;;;;;;;-0.79;61.65;97053.28;6188449;28;20722;-53
2024/01/16 06:57:25;;;;;;;2.77;1.10;;;;;;;-0.80;61.78;97058.66;6182478;28;20638;-54
2024/01/16 07:00:28;;;;;;;2.30;1.00;;;;;;;-0.83;61.84;97061.69;6187784;28;20224;-53
2024/01/16 07:03:30;;;;;;;1.13;0.97;;;;;;;-0.69;60.85;97039.91;6188104;28;20194;-51
2024/01/16 07:06:33;;;;;;;3.43;1.20;;;;;;;-0.57;60.61;97046.25;6192521;28;20303;-54
2024/01/16 07:09:36;;;;;;;1.03;0.70;;;;;;;-0.89;62.66;97050.13;6178067;28;20209;-51
2024/01/16 07:12:38;;;;;;;4.77;1.03;;;;;;;-0.98;62.97;97064.31;6175972;28;20300;-54
2024/01/16 07:15:40;;;;;;;1.57;0.90;;;;;;;-0.61;59.77;97052.84;6171906;28;20233;-54
2024/01/16 07:18:43;;;;;;;1.93;1.20;;;;;;;-1.07;62.15;97028.84;6190469;28;20202;-54
2024/01/16 07:21:49;;;;;;;1.43;0.90;;;;;;;-0.92;63.11;97062.78;6177289;28;20189;-52
2024/01/16 07:24:51;;;;;;;1.40;1.10;;;;;;;-0.95;63.65;97063.94;6169919;28;20224;-54
2024/01/16 07:27:54;;;;;;;1.27;0.93;;;;;;;-0.76;61.59;97072.19;6186382;28;20225;-54
2024/01/16 07:30:56;;;;;;;3.07;1.10;;;;;;;-0.89;63.42;97067.63;6184105;28;20763;-54
2024/01/16 07:33:59;;;;;;;1.77;1.03;;;;;;;-0.41;60.91;97058.25;6189703;28;20202;-53
2024/01/16 07:37:02;;;;;;;4.07;1.63;;;;;;;-0.53;61.19;97076.25;6174095;28;20194;-54
2024/01/16 07:40:09;;;;;;;1.93;1.23;;;;;;;-0.75;63.25;97068.59;6181868;28;20225;-53
2024/01/16 07:43:11;;;;;;;2.20;1.27;;;;;;;-0.60;62.33;97085.03;6175321;28;20202;-53
2024/01/16 07:46:14;;;;;;;1.37;0.83;;;;;;;-0.61;62.69;97084.22;6178727;28;20270;-53
2024/01/16 07:49:16;;;;;;;3.80;1.20;;;;;;;-0.55;61.27;97077.44;6192499;28;20236;-53
2024/01/16 07:52:19;;;;;;;2.37;1.00;;;;;;;-0.65;62.65;97098.66;6174633;28;20289;-54
2024/01/16 07:55:21;;;;;;;1.10;0.90;;;;;;;-0.44;60.68;97066.50;6179501;28;20736;-55
2024/01/16 07:58:26;;;;;;;3.00;1.20;;;;;;;-0.40;60.61;97072.16;6179353;28;20206;-54
2024/01/16 08:01:29;;;;;;;1.67;1.10;;;;;;;-0.41;60.05;97091.47;6174311;28;20661;-53
2024/01/16 08:04:31;;;;;;;2.17;1.47;;;;;;;-0.30;60.08;97110.09;6178991;28;20669;-53
2024/01/16 08:07:34;;;;;;;2.30;1.10;;;;;;;-0.28;59.38;97086.38;6180191;28;20205;-54
2024/01/16 08:10:37;;;;;;;3.03;0.93;;;;;;;-0.32;60.06;97100.81;6175608;28;20202;-54
2024/01/16 08:13:40;;;;;;;1.73;1.00;;;;;;;-0.24;59.32;97085.00;6169834;28;20275;-54
2024/01/16 08:16:42;;;;;;;2.83;0.90;;;;;;;-0.22;60.02;97088.22;6180355;28;20259;-53
2024/01/16 08:19:44;;;;;;;4.50;1.40;;;;;;;-0.15;59.07;97085.66;6183739;28;20193;-53
2024/01/16 08:22:47;;;;;;;1.50;0.90;;;;;;;-0.49;60.66;97091.56;6180380;28;20680;-51
2024/01/16 08:25:52;;;;;;;2.30;1.30;;;;;;;-0.47;61.57;97097.44;6171239;28;20224;-53
2024/01/16 08:28:55;;;;;;;2.53;1.10;;;;;;;-0.27;59.92;97095.81;6180325;28;20277;-53
2024/01/16 08:31:57;;;;;;;2.73;1.00;;;;;;;-0.39;60.87;97094.72;6180216;28;20315;-52
2024/01/16 08:35:00;;;;;;;2.17;1.03;;;;;;;-0.44;61.15;97105.75;6183861;28;20205;-53
2024/01/16 08:38:03;;;;;;;2.47;1.17;;;;;;;-0.39;61.16;97099.94;6172033;28;20240;-53
2024/01/16 08:41:06;;;;;;;1.73;1.10;;;;;;;-0.53;62.10;97084.13;6182967;28;20221;-52
2024/01/16 08:44:08;;;;;;;2.10;0.90;;;;;;;-0.39;62.28;97111.22;6177205;28;20194;-52
2024/01/16 08:47:11;;;;;;;2.33;0.83;;;;;;;-0.44;63.38;97113.59;6169662;28;20679;-52
2024/01/16 08:50:14;;;;;;;4.50;1.40;;;;;;;-0.28;61.89;97136.09;6181824;28;20197;-53
2024/01/16 08:53:16;;;;;;;2.40;0.80;;;;;;;-0.04;59.73;97122.63;6179704;28;20340;-54
2024/01/16 08:56:20;;;;;;;3.23;1.13;;;;;;;-0.05;58.99;97133.25;6172694;28;20239;-51
2024/01/16 08:59:24;;;;;;;1.50;1.13;;;;;;;-0.14;59.16;97113.47;6180277;28;20285;-52
2024/01/16 09:02:28;;;;;;;2.00;1.00;;;;;;;0.10;58.64;97118.31;6182248;28;20196;-52
2024/01/16 09:05:31;;;;;;;2.63;1.37;;;;;;;0.34;58.47;97138.00;6189688;28;20201;-54
2024/01/16 09:08:34;;;;;;;2.50;1.40;;;;;;;0.28;58.43;97133.53;6181907;28;20205;-52
2024/01/16 09:11:42;;;;;;;1.20;0.80;;;;;;;0.24;59.28;97132.28;6172127;28;20300;-52
2024/01/16 09:14:45;;;;;;;5.13;1.40;;;;;;;0.45;58.06;97144.56;6182881;28;20295;-55
2024/01/16 09:17:47;;;;;;;3.40;1.03;;;;;;;0.54;56.63;97140.78;6180213;28;20251;-51
2024/01/16 09:20:50;;;;;;;1.23;0.83;;;;;;;0.63;56.64;97142.25;6182298;28;20198;-53
2024/01/16 09:23:53;;;;;;;6.00;1.70;;;;;;;0.63;56.66;97139.63;6183039;28;20661;-54
2024/01/16 09:26:55;;;;;;;2.70;0.90;;;;;;;0.82;55.59;97147.81;6186202;28;20343;-52
2024/01/16 09:29:58;;;;;;;3.97;1.33;;;;;;;0.83;55.70;97152.84;6179128;28;20716;-52
2024/01/16 09:33:01;;;;;;;2.87;1.27;;;;;;;0.82;56.81;97153.06;6185663;28;20708;-53
2024/01/16 09:36:04;;;;;;;2.20;0.80;;;;;;;0.77;55.37;97137.91;6160396;28;20198;-54
2024/01/16 09:39:16;;;;;;;2.93;1.50;;;;;;;1.07;54.85;97156.00;6181567;28;20200;-53
2024/01/16 09:42:21;;;;;;;1.13;0.80;;;;;;;1.08;54.76;97166.31;6180896;28;20225;-53
2024/01/16 09:45:24;;;;;;;2.07;0.90;;;;;;;1.07;53.70;97156.81;6181598;28;20193;-52
2024/01/16 09:48:30;;;;;;;4.47;1.00;;;;;;;1.31;54.69;97166.00;6185245;28;20826;-55
2024/01/16 09:51:33;;;;;;;3.57;1.00;;;;;;;1.28;54.78;97155.91;6185513;28;20190;-53
2024/01/16 09:54:36;;;;;;;2.90;1.00;;;;;;;1.43;54.10;97166.25;6177870;28;20220;-53
2024/01/16 09:57:46;;;;;;;0.97;0.73;;;;;;;1.44;55.05;97163.44;6174127;28;20194;-53
2024/01/16 10:00:51;;;;;;;1.53;0.80;;;;;;;1.40;55.87;97167.47;6190713;28;20210;-53
2024/01/16 10:03:53;;;;;;;2.20;0.80;;;;;;;1.42;53.48;97151.50;6176271;28;20755;-54
2024/01/16 10:06:58;;;;;;;1.70;1.00;;;;;;;1.49;53.81;97168.13;6182275;28;20201;-52
2024/01/16 10:10:01;;;;;;;2.90;1.30;;;;;;;1.22;53.49;97154.88;6179437;28;20216;-53
2024/01/16 10:13:04;;;;;;;1.47;0.87;;;;;;;1.20;54.42;97150.84;6177541;28;20331;-54
2024/01/16 10:16:07;;;;;;;3.63;0.90;;;;;;;1.27;53.96;97151.66;6177674;28;20194;-54
2024/01/16 10:19:09;;;;;;;1.47;0.83;;;;;;;1.31;55.57;97152.09;6173635;28;20594;-54
2024/01/16 10:22:12;;;;;;;4.70;1.10;;;;;;;1.44;53.63;97157.41;6179646;28;20685;-55
2024/01/16 10:25:19;;;;;;;2.37;0.87;;;;;;;1.37;52.11;97170.47;6169059;28;20610;-54
2024/01/16 10:28:22;;;;;;;3.17;1.10;;;;;;;1.44;51.57;97171.31;6173481;28;20202;-54
2024/01/16 10:31:30;;;;;;;3.27;0.83;;;;;;;1.30;52.40;97174.91;6171795;28;20235;-54
2024/01/16 10:34:33;;;;;;;5.23;0.90;;;;;;;1.33;53.39;97171.91;6176880;28;20213;-53
2024/01/16 10:37:49;;;;;;;2.57;1.10;;;;;;;1.27;53.39;97162.97;6178906;28;20222;-55
2024/01/16 10:41:14;;;;;;;1.73;0.70;;;;;;;1.49;52.89;97160.25;6180602;28;20197;-54
2024/01/16 10:44:17;;;;;;;1.87;1.00;;;;;;;1.36;53.51;97137.38;6180962;28;20193;-53
2024/01/16 10:47:22;;;;;;;1.10;0.90;;;;;;;1.60;52.96;97175.41;6172035;28;20202;-53
2024/01/16 10:50:24;;;;;;;1.23;0.50;;;;;;;1.76;51.84;97153.22;6176403;28;20213;-53
2024/01/16 10:53:32;;;;;;;1.07;0.90;;;;;;;1.77;51.16;97157.47;6181769;28;20693;-55
2024/01/16 10:56:36;;;;;;;1.77;0.83;;;;;;;1.90;51.21;97147.00;6181146;28;20187;-54
2024/01/16 10:59:41;;;;;;;1.80;0.77;;;;;;;1.79;51.78;97166.78;6173320;28;20289;-51
2024/01/16 11:02:58;;;;;;;2.77;0.80;;;;;;;1.66;51.80;97137.84;6263684;28;20225;-53
2024/01/16 11:06:04;;;;;;;1.63;0.87;;;;;;;1.80;51.03;97155.25;6180323;28;20667;-54
2024/01/16 11:09:08;;;;;;;4.37;1.17;;;;;;;1.96;50.68;97137.50;6190562;28;20227;-55
2024/01/16 11:12:16;;;;;;;3.60;0.97;;;;;;;2.00;51.66;97144.78;6185757;28;20196;-54
2024/01/16 11:15:19;;;;;;;0.97;0.60;;;;;;;1.67;51.99;97070.41;6172277;28;20649;-54
2024/01/16 11:18:22;;;;;;;3.10;0.87;;;;;;;2.13;51.45;97143.19;6188853;28;20206;-54
2024/01/16 11:21:26;;;;;;;4.13;0.97;;;;;;;2.09;50.79;97144.59;6175951;28;20189;-52
2024/01/16 11:24:28;;;;;;;2.13;0.77;;;;;;;2.30;50.38;97160.97;6184384;28;20282;-54
2024/01/16 11:27:31;;;;;;;1.87;1.00;;;;;;;2.20;52.30;97160.56;6179637;28;20733;-53
2024/01/16 11:30:33;;;;;;;0.67;0.50;;;;;;;2.27;50.31;97155.34;6184226;28;20276;-52
2024/01/16 11:33:36;;;;;;;2.80;0.80;;;;;;;2.10;50.44;97161.97;6167981;28;20702;-54
2024/01/16 11:36:53;;;;;;;3.20;0.87;;;;;;;2.12;48.29;97152.91;6190110;28;20201;-55
2024/01/16 11:40:21;;;;;;;1.63;0.53;;;;;;;2.03;48.84;97164.59;6182041;28;20260;-54
2024/01/16 11:43:33;;;;;;;3.60;0.67;;;;;;;2.05;49.56;97152.06;6186313;28;20204;-54
2024/01/16 11:47:02;;;;;;;0.83;0.60;;;;;;;2.14;48.70;97147.44;6178847;28;20194;-55
2024/01/16 11:50:26;;;;;;;2.00;0.53;;;;;;;1.84;50.39;97147.81;6178038;28;20204;-54
2024/01/16 11:53:36;;;;;;;3.83;0.53;;;;;;;1.76;50.69;97146.16;6186260;28;20569;-55
2024/01/16 11:57:06;;;;;;;1.73;0.50;;;;;;;1.80;48.29;97136.88;6174596;28;20204;-53
2024/01/16 12:00:19;;;;;;;1.27;0.50;;;;;;;1.74;48.39;97116.69;6183279;28;20190;-53
2024/01/16 12:03:22;;;;;;;2.27;0.70;;;;;;;1.87;48.30;97136.88;6182904;28;20190;-54
2024/01/16 12:06:40;;;;;;;1.20;0.70;;;;;;;1.91;47.24;97103.97;6186856;28;20247;-53
2024/01/16 12:09:43;;;;;;;1.43;0.70;;;;;;;1.94;47.34;97123.78;6175834;28;20251;-54
2024/01/16 12:12:47;;;;;;;1.77;0.57;;;;;;;1.95;48.26;97120.13;6180236;28;20218;-53
2024/01/16 12:16:00;;;;;;;1.90;0.53;;;;;;;1.88;46.39;97119.34;6179678;28;20210;-54
2024/01/16 12:19:07;;;;;;;0.67;0.50;;;;;;;1.93;48.12;97124.78;6179866;28;20203;-52
2024/01/16 12:22:13;;;;;;;2.13;1.13;;;;;;;1.97;46.97;97128.59;6186873;28;20670;-53
2024/01/16 12:25:20;;;;;;;0.90;0.50;;;;;;;2.01;46.31;97121.94;6178925;28;20550;-53
2024/01/16 12:28:22;;;;;;;1.93;0.60;;;;;;;1.99;46.68;97121.34;6186172;28;20198;-53
2024/01/16 12:31:34;;;;;;;2.80;0.60;;;;;;;2.02;45.94;97121.78;6182331;28;20265;-54
2024/01/16 12:34:45;;;;;;;2.67;0.60;;;;;;;1.92;48.82;97110.84;6177485;28;20218;-54
2024/01/16 12:37:59;;;;;;;1.60;0.40;;;;;;;2.11;47.40;97114.47;6181648;28;20643;-55
2024/01/16 12:41:05;;;;;;;1.83;0.47;;;;;;;2.10;44.55;97089.22;6180338;28;20203;-53
2024/01/16 12:44:08;;;;;;;1.77;0.50;;;;;;;2.04;45.20;97097.91;6175762;28;20205;-54
2024/01/16 12:47:19;;;;;;;3.37;0.60;;;;;;;2.08;45.65;97104.38;6179309;28;20278;-54
2024/01/16 12:50:23;;;;;;;1.27;0.40;;;;;;;2.15;45.36;97105.19;6178621;28;20223;-52
2024/01/16 12:53:25;;;;;;;0.90;0.50;;;;;;;2.14;45.20;97113.28;6174922;28;20222;-52
2024/01/16 12:56:28;;;;;;;1.70;0.73;;;;;;;1.87;47.09;97102.75;6187098;28;20209;-55
2024/01/16 12:59:39;;;;;;;1.30;0.40;;;;;;;1.77;46.59;97113.66;6174735;28;20233;-52
2024/01/16 13:02:49;;;;;;;2.07;0.50;;;;;;;1.72;47.32;97099.50;6183303;28;20201;-52
2024/01/16 13:05:57;;;;;;;1.50;0.50;;;;;;;1.68;47.95;97099.09;6197348;28;20192;-51
2024/01/16 13:09:15;;;;;;;1.63;0.40;;;;;;;1.68;46.49;97099.09;6180424;28;20203;-54
2024/01/16 13:12:22;;;;;;;0.97;0.47;;;;;;;1.69;45.88;97102.53;6185279;28;20256;-55
2024/01/16 13:15:24;;;;;;;1.83;0.60;;;;;;;1.74;45.16;97097.50;6175698;28;20214;-52
2024/01/16 13:18:30;;;;;;;1.07;0.50;;;;;;;1.67;46.31;97097.47;6177008;28;20198;-53
2024/01/16 13:21:32;;;;;;;1.27;0.40;;;;;;;1.54;46.17;97102.72;6187311;28;20194;-54
2024/01/16 13:24:35;;;;;;;0.33;0.30;;;;;;;1.47;46.13;97102.69;6182502;28;20422;-53
2024/01/16 13:27:38;;;;;;;2.40;0.40;;;;;;;1.58;45.86;97098.69;6176274;28;20197;-53
2024/01/16 13:30:44;;;;;;;1.40;0.33;;;;;;;1.63;46.12;97096.28;6182607;28;20288;-54
2024/01/16 13:33:49;;;;;;;1.47;0.37;;;;;;;1.67;47.28;97097.47;6179962;28;20213;-49
2024/01/16 13:36:54;;;;;;;1.20;0.40;;;;;;;1.71;48.13;97103.94;6181278;28;20207;-49
2024/01/16 13:40:18;;;;;;;1.03;0.40;;;;;;;1.75;48.33;97099.91;6174038;28;20205;-52
2024/01/16 13:43:24;;;;;;;1.33;0.50;;;;;;;1.72;47.07;97089.78;6175211;28;20735;-54
2024/01/16 13:46:27;;;;;;;0.70;0.40;;;;;;;1.86;45.48;97101.13;6256276;28;20249;-55
2024/01/16 13:49:49;;;;;;;1.23;0.40;;;;;;;1.78;45.58;97089.03;6172700;28;20201;-53
2024/01/16 13:52:53;;;;;;;0.83;0.47;;;;;;;1.72;45.33;97091.63;6191203;28;20247;-55
2024/01/16 13:55:58;;;;;;;4.43;0.70;;;;;;;1.51;47.65;97082.09;6174229;28;20209;-52
2024/01/16 13:59:00;;;;;;;1.23;0.50;;;;;;;1.53;49.14;97093.22;6185846;28;20198;-52
2024/01/16 14:02:08;;;;;;;1.83;0.47;;;;;;;1.43;50.81;97093.59;6178356;28;20206;-54
2024/01/16 14:05:15;;;;;;;1.10;0.47;;;;;;;1.24;51.89;97083.84;6190913;28;20532;-54
2024/01/16 14:08:18;;;;;;;1.90;0.30;;;;;;;1.23;53.86;97092.72;6178479;28;20202;-54
2024/01/16 14:11:21;;;;;;;0.70;0.50;;;;;;;1.11;51.48;97095.09;6175988;28;20197;-52
2024/01/16 14:14:23;;;;;;;0.40;0.40;;;;;;;1.18;50.12;97093.31;6181232;28;20221;-53
2024/01/16 14:17:26;;;;;;;2.57;0.40;;;;;;;1.05;52.01;97095.09;6183510;28;20191;-54
2024/01/16 14:20:29;;;;;;;0.80;0.33;;;;;;;1.01;54.05;97097.28;6166489;28;20323;-53
2024/01/16 14:23:32;;;;;;;0.67;0.50;;;;;;;1.14;50.10;97094.72;6171064;28;20213;-52
2024/01/16 14:26:34;;;;;;;0.60;0.50;;;;;;;1.05;52.67;97090.66;6184114;28;20886;-51
2024/01/16 14:29:39;;;;;;;0.97;0.37;;;;;;;0.86;53.78;97070.41;6177467;28;20190;-53
2024/01/16 14:32:44;;;;;;;2.37;0.77;;;;;;;0.90;54.15;97096.03;6190736;28;20278;-52